RJTT/HND METAR and TAF weather

Enter ICAO airport designator
Station Type Date Time Source
RJTT METAR 2020/03/31 07:00 UTC NOAA

RJTT 310700Z 01008KT 9999 BKN015 BKN045 12/08 Q1020 NOSIG


Station Type Date Time Source
RJTT Decoded METAR 2020/03/31 07:00 UTC NOAA

Tokyo International Airport, Japan (RJTT) 35-33N 139-47E 8M
Mar 31, 2020 - 03:00 AM EDT / 2020.03.31 0700 UTC
Wind: from the N (010 degrees) at 9 MPH (8 KT):0
Visibility: greater than 7 mile(s):0
Sky conditions: mostly cloudy
Temperature: 53 F (12 C)
Dew Point: 46 F (8 C)
Relative Humidity: 76%
Pressure (altimeter): 30.12 in. Hg (1020 hPa)
ob: RJTT 310700Z 01008KT 9999 BKN015 BKN045 12/08 Q1020 NOSIG
cycle: 7

Station Type Date Time Source
RJTT TAF 2020/03/31 06:30 UTC NOAA

TAF RJTT 310505Z 3106/0112 36012KT 9999 FEW008 BKN015
TEMPO 3121/0100 FEW005 BKN008
TEMPO 0106/0112 4000 RA BR FEW005 BKN008

Example: see airport list